createdAt,value
2022-11-25T00:01:34.227Z,8.77
2022-11-25T00:04:02.747Z,6.75
2022-11-25T00:06:33.888Z,8.07
2022-11-25T00:09:07.933Z,5.00
2022-11-25T00:11:42.448Z,6.57
2022-11-25T00:14:14.537Z,8.98
2022-11-25T00:16:48.483Z,6.15
2022-11-25T00:19:18.121Z,8.05
2022-11-25T00:21:46.540Z,6.82
2022-11-25T00:24:16.124Z,7.35
2022-11-25T00:26:45.514Z,8.35
2022-11-25T00:29:14.512Z,8.80
2022-11-25T00:31:43.176Z,8.43
2022-11-25T00:34:13.834Z,6.88
2022-11-25T00:36:42.807Z,7.55
2022-11-25T00:39:14.356Z,9.25
2022-11-25T00:42:03.351Z,7.63
2022-11-25T00:44:41.803Z,7.47
2022-11-25T00:47:16.105Z,5.07
2022-11-25T00:49:53.810Z,5.38
2022-11-25T00:52:27.036Z,6.57
2022-11-25T00:54:55.382Z,9.85
2022-11-25T00:57:25.807Z,7.22
2022-11-25T00:59:54.285Z,4.70
2022-11-25T01:02:23.416Z,7.82
2022-11-25T01:04:51.951Z,6.32
2022-11-25T01:07:21.427Z,7.78
2022-11-25T01:09:51.066Z,7.80
2022-11-25T01:12:19.497Z,6.43
2022-11-25T01:14:47.877Z,10.93
2022-11-25T01:17:17.278Z,7.13
2022-11-25T01:19:45.648Z,6.90
2022-11-25T01:22:14.061Z,6.40
2022-11-25T01:24:42.420Z,7.13
2022-11-25T01:27:10.759Z,6.20
2022-11-25T01:29:41.455Z,6.68
2022-11-25T01:32:09.966Z,5.55
2022-11-25T01:34:38.551Z,6.95
2022-11-25T01:37:07.142Z,5.25
2022-11-25T01:39:35.595Z,5.28
2022-11-25T01:42:04.104Z,8.85
2022-11-25T01:44:33.168Z,7.82
2022-11-25T01:47:15.593Z,9.95
2022-11-25T01:52:40.648Z,7.55
2022-11-25T01:55:23.487Z,7.78
2022-11-25T01:57:55.498Z,4.32
2022-11-25T02:00:23.983Z,6.32
2022-11-25T02:02:54.843Z,8.10
2022-11-25T02:05:33.954Z,7.63
2022-11-25T02:08:04.628Z,5.90
2022-11-25T02:10:35.454Z,7.03
2022-11-25T02:13:04.025Z,7.10
2022-11-25T02:15:35.265Z,6.13
2022-11-25T02:18:05.432Z,9.23
2022-11-25T02:20:33.997Z,4.93
2022-11-25T02:23:37.706Z,5.57
2022-11-25T02:26:06.172Z,7.50
2022-11-25T02:28:35.031Z,6.00
2022-11-25T02:31:04.746Z,4.47
2022-11-25T02:33:33.255Z,7.53
2022-11-25T02:36:14.906Z,9.90
2022-11-25T02:38:57.639Z,4.97
2022-11-25T02:41:41.060Z,6.85
2022-11-25T02:44:09.557Z,5.38
2022-11-25T02:46:38.108Z,4.43
2022-11-25T02:49:09.704Z,7.00
2022-11-25T02:51:41.646Z,5.22
2022-11-25T02:54:13.013Z,5.55
2022-11-25T02:56:42.009Z,4.65
2022-11-25T02:59:10.771Z,5.70
2022-11-25T03:01:40.258Z,4.90
2022-11-25T03:04:08.801Z,3.17
2022-11-25T03:06:37.350Z,4.60
2022-11-25T03:09:05.801Z,4.40
2022-11-25T03:11:52.636Z,6.03
2022-11-25T03:14:21.031Z,3.33
2022-11-25T03:16:49.653Z,3.10
2022-11-25T03:19:18.166Z,5.15
2022-11-25T03:21:46.557Z,4.07
2022-11-25T03:24:14.970Z,4.95
2022-11-25T03:26:44.415Z,4.30
2022-11-25T03:29:12.821Z,2.63
2022-11-25T03:31:41.312Z,2.83
2022-11-25T03:34:09.775Z,6.63
2022-11-25T03:36:39.447Z,4.03
2022-11-25T03:39:07.814Z,2.75
2022-11-25T03:41:36.145Z,3.60
2022-11-25T03:44:04.659Z,6.97
2022-11-25T03:46:33.061Z,2.90
2022-11-25T03:49:01.492Z,3.05
2022-11-25T03:51:29.893Z,2.95
2022-11-25T03:53:58.400Z,2.63
2022-11-25T03:56:26.941Z,2.65
2022-11-25T03:58:55.371Z,2.72
2022-11-25T04:01:23.856Z,3.30
2022-11-25T04:03:52.333Z,3.13
2022-11-25T04:06:22.116Z,3.05
2022-11-25T04:08:51.164Z,3.63
2022-11-25T04:11:20.587Z,2.83
2022-11-25T04:13:48.971Z,3.83
2022-11-25T04:16:24.857Z,2.78
2022-11-25T04:18:53.266Z,2.88
2022-11-25T04:21:21.639Z,2.65
2022-11-25T04:23:50.061Z,5.13
2022-11-25T04:26:18.425Z,3.92
2022-11-25T04:28:46.853Z,4.30
2022-11-25T04:31:16.368Z,3.20
2022-11-25T04:33:48.446Z,3.00
2022-11-25T04:36:20.788Z,2.97
2022-11-25T04:38:49.400Z,3.13
2022-11-25T04:41:18.821Z,3.05
2022-11-25T04:43:47.218Z,3.78
2022-11-25T04:46:24.878Z,3.08
2022-11-25T04:48:53.382Z,3.00
2022-11-25T04:51:21.806Z,5.60
2022-11-25T04:53:50.190Z,3.45
2022-11-25T04:56:20.235Z,4.03
2022-11-25T04:59:06.996Z,2.80
2022-11-25T05:01:35.522Z,3.20
2022-11-25T05:04:04.162Z,3.50
2022-11-25T05:06:32.585Z,2.22
2022-11-25T05:09:01.035Z,4.03
2022-11-25T05:11:29.392Z,2.70
2022-11-25T05:13:57.781Z,2.55
2022-11-25T05:16:26.299Z,2.85
2022-11-25T05:18:57.737Z,2.28
2022-11-25T05:21:26.137Z,3.08
2022-11-25T05:23:56.093Z,3.53
2022-11-25T05:26:24.709Z,4.13
2022-11-25T05:28:53.082Z,2.88
2022-11-25T05:31:21.530Z,2.63
2022-11-25T05:33:50.128Z,3.53
2022-11-25T05:36:18.599Z,3.15
2022-11-25T05:38:47.402Z,2.83
2022-11-25T05:41:15.898Z,4.57
2022-11-25T05:43:44.319Z,2.65
2022-11-25T05:46:13.140Z,2.80
2022-11-25T05:48:41.665Z,5.20
2022-11-25T05:51:10.343Z,3.75
2022-11-25T05:53:38.708Z,2.95
2022-11-25T05:56:07.814Z,2.70
2022-11-25T05:58:36.259Z,3.25
2022-11-25T06:01:12.253Z,2.42
2022-11-25T06:03:42.277Z,3.15
2022-11-25T06:06:11.953Z,3.38
2022-11-25T06:08:40.391Z,5.60
2022-11-25T06:11:13.397Z,3.75
2022-11-25T06:13:43.866Z,4.90
2022-11-25T06:16:15.683Z,5.25
2022-11-25T06:18:44.381Z,3.15
2022-11-25T06:21:13.127Z,3.40
2022-11-25T06:23:41.622Z,4.50
2022-11-25T06:26:13.468Z,3.00
2022-11-25T06:28:42.315Z,4.15
2022-11-25T06:31:14.487Z,5.28
2022-11-25T06:36:17.009Z,5.43
2022-11-25T06:38:52.048Z,3.08
2022-11-25T06:41:22.827Z,3.25
2022-11-25T06:43:51.292Z,3.25
2022-11-25T06:46:24.916Z,4.95
2022-11-25T06:48:54.143Z,5.97
2022-11-25T06:51:24.471Z,3.65
2022-11-25T06:53:53.612Z,4.97
2022-11-25T06:56:27.736Z,3.50
2022-11-25T06:58:56.972Z,3.72
2022-11-25T07:01:29.495Z,6.75
2022-11-25T07:04:03.457Z,4.00
2022-11-25T07:06:33.420Z,4.90
2022-11-25T07:09:02.532Z,4.47
2022-11-25T07:11:33.587Z,4.35
2022-11-25T07:14:06.344Z,5.15
2022-11-25T07:16:38.203Z,7.53
2022-11-25T07:19:07.941Z,5.13
2022-11-25T07:21:36.582Z,5.85
2022-11-25T07:24:07.848Z,5.75
2022-11-25T07:26:38.371Z,7.37
2022-11-25T07:29:29.394Z,5.88
2022-11-25T07:31:59.582Z,4.25
2022-11-25T07:34:28.998Z,5.88
2022-11-25T07:36:58.441Z,5.82
2022-11-25T07:39:26.924Z,6.32
2022-11-25T07:41:55.438Z,8.02
2022-11-25T07:44:24.025Z,5.70
2022-11-25T07:46:52.560Z,5.90
2022-11-25T07:49:25.309Z,7.60
2022-11-25T07:51:59.677Z,6.85
2022-11-25T07:54:29.124Z,8.20
2022-11-25T07:56:57.768Z,7.32
2022-11-25T07:59:27.241Z,7.57
2022-11-25T08:01:56.389Z,7.35
2022-11-25T08:04:25.987Z,5.32
2022-11-25T08:06:55.462Z,4.97
2022-11-25T08:09:24.199Z,6.03
2022-11-25T08:11:52.996Z,7.28
2022-11-25T08:14:21.702Z,5.10
2022-11-25T08:16:50.216Z,4.97
2022-11-25T08:19:18.882Z,6.20
2022-11-25T08:21:50.258Z,5.97
2022-11-25T08:24:21.052Z,6.20
2022-11-25T08:26:49.804Z,6.35
2022-11-25T08:29:19.209Z,4.68
2022-11-25T08:31:47.685Z,7.25
2022-11-25T08:34:22.667Z,6.28
2022-11-25T08:36:52.088Z,7.47
2022-11-25T08:39:51.154Z,4.55
2022-11-25T08:42:11.011Z,7.32
2022-11-25T08:44:39.606Z,4.90
2022-11-25T08:47:09.772Z,7.70
2022-11-25T08:49:41.243Z,7.03
2022-11-25T08:52:10.711Z,5.30
2022-11-25T08:54:39.350Z,4.30
2022-11-25T08:57:07.828Z,5.63
2022-11-25T08:59:36.954Z,4.53
2022-11-25T09:02:07.251Z,8.13
2022-11-25T09:04:35.776Z,3.92
2022-11-25T09:07:04.987Z,11.63
2022-11-25T09:09:33.705Z,4.07
2022-11-25T09:12:02.142Z,7.10
2022-11-25T09:14:30.641Z,4.78
2022-11-25T09:17:01.977Z,6.03
2022-11-25T09:19:31.532Z,8.95
2022-11-25T09:21:59.973Z,5.45
2022-11-25T09:24:28.500Z,4.72
2022-11-25T09:26:56.978Z,5.05
2022-11-25T09:29:26.331Z,5.53
2022-11-25T09:31:55.772Z,5.03
2022-11-25T09:34:24.409Z,5.88
2022-11-25T09:36:53.038Z,5.70
2022-11-25T09:39:21.426Z,5.43
2022-11-25T09:42:34.640Z,4.75
2022-11-25T09:45:33.821Z,8.60
2022-11-25T09:48:20.332Z,5.72
2022-11-25T09:51:02.843Z,5.10
2022-11-25T09:53:53.193Z,6.18
2022-11-25T09:56:40.855Z,5.22
2022-11-25T09:59:25.025Z,8.13
2022-11-25T10:02:02.610Z,5.10
2022-11-25T10:04:55.114Z,4.20
2022-11-25T10:10:04.789Z,6.18
2022-11-25T10:12:39.913Z,6.97
2022-11-25T10:15:34.146Z,4.53
2022-11-25T10:18:27.307Z,4.97
2022-11-25T10:20:55.975Z,8.25
2022-11-25T10:23:35.418Z,10.05
2022-11-25T10:26:15.634Z,6.30
2022-11-25T10:29:00.260Z,3.85
2022-11-25T10:31:38.175Z,6.93
2022-11-25T10:34:26.911Z,6.65
2022-11-25T10:36:58.860Z,7.47
2022-11-25T10:39:31.829Z,7.18
2022-11-25T10:42:12.715Z,5.85
2022-11-25T10:44:42.244Z,5.90
2022-11-25T10:47:29.379Z,6.05
2022-11-25T10:50:20.186Z,6.15
2022-11-25T10:53:10.719Z,7.80
2022-11-25T10:55:39.271Z,5.97
2022-11-25T10:58:29.094Z,8.50
2022-11-25T11:01:36.028Z,4.50
2022-11-25T11:04:11.615Z,6.72
2022-11-25T11:06:42.401Z,4.68
2022-11-25T11:09:34.523Z,7.53
2022-11-25T11:12:19.647Z,5.45
2022-11-25T11:14:48.884Z,5.35
2022-11-25T11:17:36.824Z,6.90
2022-11-25T11:20:09.166Z,6.53
2022-11-25T11:22:47.175Z,5.82
2022-11-25T11:25:21.656Z,4.70
2022-11-25T11:27:50.295Z,6.07
2022-11-25T11:30:23.182Z,5.95
2022-11-25T11:32:57.724Z,6.95
2022-11-25T11:35:45.316Z,5.47
2022-11-25T11:38:30.425Z,4.70
2022-11-25T11:41:30.083Z,4.78
2022-11-25T11:44:23.029Z,4.30
2022-11-25T11:47:03.682Z,5.55
2022-11-25T11:49:50.541Z,4.35
2022-11-25T11:52:47.573Z,6.05
2022-11-25T11:56:11.742Z,5.97
2022-11-25T12:01:20.970Z,5.93
2022-11-25T12:04:03.615Z,7.10
2022-11-25T12:06:35.029Z,4.95
2022-11-25T12:09:18.454Z,6.03
2022-11-25T12:11:54.183Z,5.53
2022-11-25T12:14:40.629Z,6.88
2022-11-25T12:17:18.753Z,6.78
2022-11-25T12:20:00.216Z,4.55
2022-11-25T12:22:42.474Z,6.03
2022-11-25T12:25:21.273Z,5.28
2022-11-25T12:28:06.619Z,4.95
2022-11-25T12:30:41.786Z,5.10
2022-11-25T12:33:21.640Z,5.15
2022-11-25T12:36:16.672Z,5.72
2022-11-25T12:39:04.077Z,4.43
2022-11-25T12:41:42.295Z,5.45
2022-11-25T12:44:19.739Z,6.35
2022-11-25T12:46:53.383Z,4.15
2022-11-25T12:49:25.643Z,7.43
2022-11-25T12:52:26.933Z,3.97
2022-11-25T12:55:14.678Z,7.90
2022-11-25T12:58:16.923Z,7.90
2022-11-25T13:00:56.608Z,6.47
2022-11-25T13:03:31.127Z,4.43
2022-11-25T13:06:16.300Z,6.15
2022-11-25T13:08:51.804Z,4.53
2022-11-25T13:11:24.004Z,6.47
2022-11-25T13:14:08.334Z,6.55
2022-11-25T13:16:37.504Z,7.43
2022-11-25T13:19:12.248Z,9.65
2022-11-25T13:22:00.309Z,8.52
2022-11-25T13:24:34.288Z,5.05
2022-11-25T13:27:05.160Z,6.85
2022-11-25T13:29:39.930Z,8.95
2022-11-25T13:32:31.649Z,6.65
2022-11-25T13:35:26.224Z,7.25
2022-11-25T13:37:54.670Z,6.18
2022-11-25T13:40:23.043Z,4.55
2022-11-25T13:42:52.507Z,6.47
2022-11-25T13:45:32.367Z,6.50
2022-11-25T13:48:18.889Z,7.38
2022-11-25T13:51:09.974Z,7.30
2022-11-25T13:53:38.871Z,7.15
2022-11-25T13:56:24.400Z,5.65
2022-11-25T13:59:11.153Z,6.75
2022-11-25T14:01:46.929Z,6.80
2022-11-25T14:04:16.574Z,8.50
2022-11-25T14:07:20.287Z,6.22
2022-11-25T14:10:17.011Z,10.13
2022-11-25T14:12:59.247Z,6.20
2022-11-25T14:15:44.456Z,5.68
2022-11-25T14:19:16.866Z,5.90
2022-11-25T14:21:45.667Z,5.88
2022-11-25T14:24:28.156Z,12.48
2022-11-25T14:26:59.205Z,7.50
2022-11-25T14:29:30.838Z,6.57
2022-11-25T14:32:08.757Z,5.78
2022-11-25T14:34:49.160Z,6.18
2022-11-25T14:37:44.208Z,5.30
2022-11-25T14:40:21.971Z,6.65
2022-11-25T14:42:54.039Z,7.03
2022-11-25T14:45:26.292Z,7.38
2022-11-25T14:47:55.375Z,6.55
2022-11-25T14:50:40.452Z,8.52
2022-11-25T14:53:11.259Z,9.50
2022-11-25T14:55:39.722Z,7.25
2022-11-25T14:58:12.497Z,5.72
2022-11-25T15:00:59.863Z,6.45
2022-11-25T15:03:28.490Z,7.55
2022-11-25T15:06:06.025Z,7.20
2022-11-25T15:08:45.703Z,7.18
2022-11-25T15:11:18.679Z,7.90
2022-11-25T15:13:53.030Z,8.63
2022-11-25T15:16:26.010Z,6.60
2022-11-25T15:18:59.863Z,8.13
2022-11-25T15:22:00.051Z,6.05
2022-11-25T15:24:48.948Z,6.53
2022-11-25T15:27:25.151Z,8.52
2022-11-25T15:29:55.774Z,5.28
2022-11-25T15:32:29.805Z,8.55
2022-11-25T15:35:02.399Z,6.45
2022-11-25T15:37:30.953Z,7.78
2022-11-25T15:40:30.162Z,9.32
2022-11-25T15:43:02.493Z,7.00
2022-11-25T15:45:44.313Z,6.47
2022-11-25T15:48:24.324Z,9.73
2022-11-25T15:50:56.486Z,7.07
2022-11-25T15:56:03.307Z,7.50
2022-11-25T15:58:31.799Z,8.43
2022-11-25T16:01:19.237Z,11.13
2022-11-25T16:03:49.376Z,7.68
2022-11-25T16:06:26.547Z,6.50
2022-11-25T16:09:00.936Z,7.10
2022-11-25T16:11:33.607Z,8.15
2022-11-25T16:14:26.867Z,10.40
2022-11-25T16:17:01.950Z,8.38
2022-11-25T16:19:37.769Z,8.63
2022-11-25T16:22:14.451Z,9.20
2022-11-25T16:24:50.625Z,7.85
2022-11-25T16:27:19.282Z,17.45
2022-11-25T16:29:50.692Z,8.48
2022-11-25T16:32:28.287Z,10.32
2022-11-25T16:35:09.972Z,8.20
2022-11-25T16:37:42.775Z,8.55
2022-11-25T16:40:15.366Z,7.88
2022-11-25T16:42:48.732Z,8.02
2022-11-25T16:45:23.422Z,13.98
2022-11-25T16:47:51.950Z,7.97
2022-11-25T16:50:23.144Z,9.00
2022-11-25T16:52:51.504Z,10.97
2022-11-25T16:55:20.131Z,9.90
2022-11-25T16:57:48.612Z,8.13
2022-11-25T17:00:18.391Z,9.15
2022-11-25T17:02:46.828Z,10.18
2022-11-25T17:05:24.312Z,11.00
2022-11-25T17:07:52.904Z,9.98
2022-11-25T17:10:21.693Z,11.32
2022-11-25T17:12:50.880Z,13.38
2022-11-25T17:15:24.795Z,10.95
2022-11-25T17:17:54.633Z,8.23
2022-11-25T17:20:24.773Z,10.48
2022-11-25T17:22:54.134Z,10.07
2022-11-25T17:25:25.578Z,13.85
2022-11-25T17:27:54.747Z,9.38
2022-11-25T17:30:25.514Z,9.38
2022-11-25T17:33:06.374Z,9.95
2022-11-25T17:35:34.780Z,10.70
2022-11-25T17:38:12.155Z,9.73
2022-11-25T17:40:43.175Z,11.18
2022-11-25T17:43:16.540Z,9.10
2022-11-25T17:45:46.623Z,11.02
2022-11-25T17:48:17.436Z,10.63
2022-11-25T17:50:47.337Z,8.15
2022-11-25T17:53:15.786Z,10.70
2022-11-25T17:55:44.247Z,12.75
2022-11-25T17:58:15.442Z,12.23
2022-11-25T18:00:45.242Z,13.30
2022-11-25T18:03:16.315Z,13.57
2022-11-25T18:05:45.947Z,9.32
2022-11-25T18:08:14.582Z,15.48
2022-11-25T18:10:46.246Z,14.48
2022-11-25T18:13:16.233Z,11.18
2022-11-25T18:15:44.726Z,11.50
2022-11-25T18:18:21.843Z,12.48
2022-11-25T18:20:51.488Z,11.57
2022-11-25T18:23:20.063Z,14.32
2022-11-25T18:25:48.808Z,13.48
2022-11-25T18:28:24.664Z,11.60
2022-11-25T18:30:57.046Z,13.00
2022-11-25T18:33:25.546Z,10.70
2022-11-25T18:35:54.109Z,13.85
2022-11-25T18:38:22.704Z,13.38
2022-11-25T18:40:53.936Z,10.63
2022-11-25T18:43:26.244Z,8.48
2022-11-25T18:45:55.599Z,12.07
2022-11-25T18:48:25.929Z,14.68
2022-11-25T18:50:56.117Z,12.27
2022-11-25T18:53:24.663Z,14.82
2022-11-25T18:55:53.206Z,12.15
2022-11-25T18:58:24.370Z,15.10
2022-11-25T19:00:57.925Z,13.57
2022-11-25T19:03:26.561Z,12.63
2022-11-25T19:05:55.889Z,10.45
2022-11-25T19:08:24.382Z,12.15
2022-11-25T19:10:53.293Z,12.68
2022-11-25T19:13:34.938Z,12.75
2022-11-25T19:16:12.029Z,13.18
2022-11-25T19:18:40.700Z,14.10
2022-11-25T19:21:18.453Z,11.23
2022-11-25T19:23:47.926Z,15.27
2022-11-25T19:26:24.945Z,14.40
2022-11-25T19:29:01.567Z,14.20
2022-11-25T19:31:33.198Z,12.32
2022-11-25T19:34:02.114Z,10.55
2022-11-25T19:36:31.750Z,14.57
2022-11-25T19:39:00.548Z,12.10
2022-11-25T19:41:29.242Z,13.00
2022-11-25T19:43:57.830Z,8.73
2022-11-25T19:46:33.108Z,11.30
2022-11-25T19:49:03.060Z,15.52
2022-11-25T19:51:33.953Z,13.10
2022-11-25T19:54:12.231Z,12.30
2022-11-25T19:56:41.363Z,10.10
2022-11-25T19:59:10.486Z,12.10
2022-11-25T20:01:43.459Z,12.55
2022-11-25T20:04:22.045Z,12.23
2022-11-25T20:06:50.619Z,11.40
2022-11-25T20:09:19.022Z,12.13
2022-11-25T20:11:47.632Z,11.70
2022-11-25T20:14:16.089Z,11.57
2022-11-25T20:16:44.658Z,14.38
2022-11-25T20:19:18.150Z,12.70
2022-11-25T20:21:47.377Z,18.05
2022-11-25T20:24:19.514Z,14.45
2022-11-25T20:29:27.399Z,11.98
2022-11-25T20:31:58.783Z,16.42
2022-11-25T20:34:28.266Z,12.20
2022-11-25T20:36:56.995Z,12.93
2022-11-25T20:39:25.593Z,13.77
2022-11-25T20:41:54.007Z,19.17
2022-11-25T20:44:23.623Z,21.17
2022-11-25T20:46:52.255Z,14.35
2022-11-25T20:49:29.339Z,12.35
2022-11-25T20:51:59.234Z,19.90
2022-11-25T20:54:27.825Z,13.50
2022-11-25T20:56:57.284Z,16.50
2022-11-25T20:59:25.769Z,17.60
2022-11-25T21:01:54.897Z,14.98
2022-11-25T21:04:23.606Z,13.77
2022-11-25T21:06:52.062Z,14.35
2022-11-25T21:09:24.812Z,18.25
2022-11-25T21:11:53.278Z,12.35
2022-11-25T21:14:21.717Z,15.90
2022-11-25T21:16:50.353Z,15.95
2022-11-25T21:19:18.908Z,13.13
2022-11-25T21:21:50.571Z,14.40
2022-11-25T21:24:51.426Z,13.57
2022-11-25T21:27:20.562Z,17.40
2022-11-25T21:29:48.902Z,15.95
2022-11-25T21:32:22.871Z,14.77
2022-11-25T21:34:52.123Z,12.60
2022-11-25T21:37:30.145Z,16.73
2022-11-25T21:39:59.213Z,15.93
2022-11-25T21:42:29.667Z,15.82
2022-11-25T21:44:58.191Z,15.23
2022-11-25T21:47:29.544Z,15.43
2022-11-25T21:49:58.367Z,13.80
2022-11-25T21:52:26.844Z,16.08
2022-11-25T21:54:55.266Z,12.38
2022-11-25T21:57:27.958Z,20.35
2022-11-25T21:59:56.403Z,12.02
2022-11-25T22:02:24.977Z,16.77
2022-11-25T22:04:54.749Z,13.27
2022-11-25T22:07:29.176Z,13.63
2022-11-25T22:09:59.132Z,15.75
2022-11-25T22:12:30.225Z,13.27
2022-11-25T22:15:00.775Z,14.73
2022-11-25T22:17:30.033Z,14.60
2022-11-25T22:19:58.861Z,14.10
2022-11-25T22:22:27.940Z,14.40
2022-11-25T22:24:56.366Z,13.65
2022-11-25T22:27:36.202Z,14.15
2022-11-25T22:30:05.716Z,15.38
2022-11-25T22:32:34.214Z,17.65
2022-11-25T22:35:02.624Z,14.05
2022-11-25T22:37:31.221Z,14.95
2022-11-25T22:39:59.692Z,16.45
2022-11-25T22:42:30.990Z,16.45
2022-11-25T22:45:02.131Z,12.90
2022-11-25T22:47:37.312Z,14.60
2022-11-25T22:50:14.389Z,13.73
2022-11-25T22:52:43.097Z,12.13
2022-11-25T22:55:16.401Z,11.65
2022-11-25T22:57:45.585Z,13.07
2022-11-25T23:00:23.858Z,16.77
2022-11-25T23:02:56.258Z,14.80
2022-11-25T23:08:09.813Z,13.43
2022-11-25T23:10:38.268Z,12.65
2022-11-25T23:13:06.997Z,13.82
2022-11-25T23:15:36.261Z,16.25
2022-11-25T23:18:12.121Z,15.55
2022-11-25T23:20:41.682Z,14.10
2022-11-25T23:23:19.819Z,16.77
2022-11-25T23:25:49.204Z,12.80
2022-11-25T23:28:17.693Z,16.60
2022-11-25T23:30:52.035Z,16.38
2022-11-25T23:33:29.599Z,15.77
2022-11-25T23:35:59.233Z,13.18
2022-11-25T23:38:28.811Z,16.10
2022-11-25T23:40:57.279Z,11.77
2022-11-25T23:43:26.583Z,12.65
2022-11-25T23:45:56.488Z,14.00
2022-11-25T23:48:29.272Z,12.77
2022-11-25T23:50:59.223Z,16.10
2022-11-25T23:53:33.566Z,13.85
2022-11-25T23:56:02.099Z,15.07
2022-11-25T23:58:30.659Z,15.65
